createdAt,value
2022-09-16T00:00:24.899Z,66.50
2022-09-16T00:02:55.421Z,65.43
2022-09-16T00:05:22.504Z,65.58
2022-09-16T00:07:49.415Z,66.65
2022-09-16T00:10:16.539Z,65.83
2022-09-16T00:12:43.474Z,69.21
2022-09-16T00:15:11.074Z,73.12
2022-09-16T00:17:38.646Z,70.07
2022-09-16T00:20:06.713Z,68.48
2022-09-16T00:22:34.105Z,68.28
2022-09-16T00:25:01.033Z,67.29
2022-09-16T00:27:28.006Z,68.04
2022-09-16T00:29:54.915Z,64.18
2022-09-16T00:32:21.773Z,63.45
2022-09-16T00:34:49.132Z,65.15
2022-09-16T00:37:16.020Z,62.41
2022-09-16T00:39:42.885Z,64.29
2022-09-16T00:42:11.359Z,65.09
2022-09-16T00:44:56.682Z,69.81
2022-09-16T00:47:37.469Z,64.00
2022-09-16T00:50:10.530Z,63.63
2022-09-16T00:52:37.650Z,63.94
2022-09-16T00:55:08.409Z,63.32
2022-09-16T00:57:35.523Z,63.49
2022-09-16T01:00:02.860Z,65.27
2022-09-16T01:02:29.815Z,67.12
2022-09-16T01:05:00.717Z,67.57
2022-09-16T01:07:32.009Z,66.36
2022-09-16T01:09:59.862Z,65.68
2022-09-16T01:12:28.511Z,66.75
2022-09-16T01:14:55.939Z,70.15
2022-09-16T01:17:40.468Z,69.16
2022-09-16T01:20:41.749Z,69.98
2022-09-16T01:23:11.496Z,73.10
2022-09-16T01:26:21.289Z,71.61
2022-09-16T01:29:10.032Z,70.99
2022-09-16T01:31:39.491Z,72.57
2022-09-16T01:34:25.782Z,71.00
2022-09-16T01:37:35.949Z,76.30
2022-09-16T01:40:29.294Z,75.25
2022-09-16T01:43:05.245Z,74.23
2022-09-16T01:45:46.809Z,74.64
2022-09-16T01:49:03.770Z,79.68
2022-09-16T01:52:09.198Z,75.50
2022-09-16T01:54:47.731Z,77.13
2022-09-16T01:57:18.662Z,72.47
2022-09-16T02:00:11.203Z,72.00
2022-09-16T02:02:44.607Z,69.93
2022-09-16T02:05:46.987Z,74.45
2022-09-16T02:08:18.277Z,73.67
2022-09-16T02:10:51.828Z,75.71
2022-09-16T02:13:39.244Z,74.80
2022-09-16T02:16:11.238Z,73.64
2022-09-16T02:18:41.872Z,74.14
2022-09-16T02:21:12.921Z,76.00
2022-09-16T02:23:51.979Z,73.95
2022-09-16T02:26:22.209Z,72.39
2022-09-16T02:28:50.209Z,72.93
2022-09-16T02:31:18.098Z,69.87
2022-09-16T02:34:07.191Z,74.21
2022-09-16T02:36:35.063Z,73.27
2022-09-16T02:39:08.847Z,69.93
2022-09-16T02:41:37.982Z,67.19
2022-09-16T02:44:05.749Z,66.94
2022-09-16T02:46:45.220Z,61.08
2022-09-16T02:49:14.849Z,60.13
2022-09-16T02:52:24.268Z,62.46
2022-09-16T02:55:11.844Z,61.88
2022-09-16T02:57:38.904Z,64.39
2022-09-16T03:00:07.260Z,65.68
2022-09-16T03:02:35.213Z,68.30
2022-09-16T03:05:02.441Z,70.72
2022-09-16T03:07:29.819Z,68.22
2022-09-16T03:09:56.826Z,71.26
2022-09-16T03:12:42.104Z,67.61
2022-09-16T03:15:24.323Z,69.40
2022-09-16T03:18:17.511Z,66.62
2022-09-16T03:20:47.318Z,66.23
2022-09-16T03:23:32.885Z,63.64
2022-09-16T03:26:18.471Z,69.52
2022-09-16T03:28:56.637Z,68.96
2022-09-16T03:31:34.990Z,69.76
2022-09-16T03:34:06.355Z,69.41
2022-09-16T03:36:36.781Z,69.66
2022-09-16T03:39:04.601Z,68.21
2022-09-16T03:41:33.312Z,67.73
2022-09-16T03:44:04.040Z,67.31
2022-09-16T03:46:31.626Z,64.21
2022-09-16T03:48:59.161Z,63.73
2022-09-16T03:51:26.777Z,62.09
2022-09-16T03:53:54.372Z,63.63
2022-09-16T03:56:23.753Z,64.01
2022-09-16T03:58:50.913Z,63.86
2022-09-16T04:01:18.002Z,64.23
2022-09-16T04:03:45.005Z,69.01
2022-09-16T04:06:11.853Z,67.15
2022-09-16T04:08:39.941Z,66.94
2022-09-16T04:11:07.293Z,66.57
2022-09-16T04:13:35.415Z,68.94
2022-09-16T04:16:03.941Z,68.35
2022-09-16T04:18:32.161Z,71.66
2022-09-16T04:21:00.704Z,71.73
2022-09-16T04:23:29.089Z,70.03
2022-09-16T04:26:01.335Z,70.83
2022-09-16T04:28:30.564Z,71.30
2022-09-16T04:31:06.135Z,70.24
2022-09-16T04:33:35.089Z,70.14
2022-09-16T04:36:12.456Z,70.00
2022-09-16T04:38:40.801Z,70.82
2022-09-16T04:41:10.164Z,71.25
2022-09-16T04:43:37.281Z,72.66
2022-09-16T04:46:04.773Z,70.61
2022-09-16T04:48:31.821Z,70.05
2022-09-16T04:51:12.540Z,70.66
2022-09-16T04:53:40.851Z,70.39
2022-09-16T04:56:10.289Z,70.64
2022-09-16T04:58:37.266Z,71.08
2022-09-16T05:01:15.600Z,68.10
2022-09-16T05:03:44.585Z,65.30
2022-09-16T05:06:17.172Z,69.57
2022-09-16T05:08:47.911Z,71.38
2022-09-16T05:11:17.503Z,68.75
2022-09-16T05:13:44.581Z,68.57
2022-09-16T05:16:14.154Z,70.68
2022-09-16T05:18:42.468Z,67.35
2022-09-16T05:21:12.234Z,70.05
2022-09-16T05:23:45.954Z,66.96
2022-09-16T05:26:18.520Z,66.80
2022-09-16T05:28:45.643Z,69.50
2022-09-16T05:31:19.936Z,68.22
2022-09-16T05:33:54.516Z,68.18
2022-09-16T05:36:21.905Z,72.01
2022-09-16T05:39:11.017Z,68.66
2022-09-16T05:41:35.889Z,68.43
2022-09-16T05:44:03.007Z,68.85
2022-09-16T05:46:30.354Z,65.01
2022-09-16T05:48:57.347Z,67.46
2022-09-16T05:51:25.685Z,64.72
2022-09-16T05:53:53.968Z,64.38
2022-09-16T05:56:22.975Z,67.02
2022-09-16T05:58:55.048Z,67.33
2022-09-16T06:01:24.466Z,65.42
2022-09-16T06:03:51.928Z,64.35
2022-09-16T06:06:25.834Z,63.47
2022-09-16T06:08:57.971Z,63.15
2022-09-16T06:11:26.639Z,63.46
2022-09-16T06:13:55.902Z,62.36
2022-09-16T06:16:23.945Z,63.67
2022-09-16T06:18:50.827Z,62.99
2022-09-16T06:21:17.788Z,59.92
2022-09-16T06:23:44.735Z,59.59
2022-09-16T06:26:14.350Z,57.84
2022-09-16T06:28:41.656Z,56.27
2022-09-16T06:31:14.880Z,56.17
2022-09-16T06:33:42.379Z,55.81
2022-09-16T06:36:11.431Z,56.25
2022-09-16T06:38:38.640Z,58.72
2022-09-16T06:41:07.778Z,61.73
2022-09-16T06:43:35.364Z,66.05
2022-09-16T06:46:19.666Z,63.28
2022-09-16T06:48:50.304Z,61.14
2022-09-16T06:51:24.657Z,60.80
2022-09-16T06:53:52.399Z,59.39
2022-09-16T06:56:21.482Z,60.32
2022-09-16T06:58:50.604Z,57.68
2022-09-16T07:01:21.834Z,59.20
2022-09-16T07:03:50.959Z,60.94
2022-09-16T07:06:19.499Z,61.75
2022-09-16T07:08:46.933Z,62.13
2022-09-16T07:11:21.082Z,64.44
2022-09-16T07:13:49.178Z,61.71
2022-09-16T07:16:18.582Z,59.90
2022-09-16T07:18:47.037Z,60.29
2022-09-16T07:21:18.187Z,60.31
2022-09-16T07:23:45.982Z,60.30
2022-09-16T07:26:21.271Z,61.28
2022-09-16T07:28:49.633Z,64.13
2022-09-16T07:31:19.083Z,60.35
2022-09-16T07:33:48.424Z,65.01
2022-09-16T07:36:20.120Z,66.62
2022-09-16T07:38:47.299Z,60.15
2022-09-16T07:41:18.638Z,59.92
2022-09-16T07:43:46.208Z,65.26
2022-09-16T07:46:16.732Z,61.74
2022-09-16T07:48:44.724Z,65.81
2022-09-16T07:51:14.718Z,66.12
2022-09-16T07:53:42.494Z,66.57
2022-09-16T07:56:13.218Z,64.35
2022-09-16T07:58:40.562Z,63.64
2022-09-16T08:01:08.683Z,63.03
2022-09-16T08:03:37.019Z,62.87
2022-09-16T08:06:07.110Z,58.70
2022-09-16T08:08:34.624Z,60.12
2022-09-16T08:11:02.301Z,57.29
2022-09-16T08:13:30.851Z,54.75
2022-09-16T08:16:03.614Z,54.97
2022-09-16T08:18:30.507Z,54.72
2022-09-16T08:20:57.948Z,50.24
2022-09-16T08:23:24.849Z,52.04
2022-09-16T08:25:59.206Z,51.99
2022-09-16T08:28:35.814Z,51.66
2022-09-16T08:31:12.814Z,52.38
2022-09-16T08:33:40.908Z,53.55
2022-09-16T08:36:28.183Z,55.35
2022-09-16T08:38:57.003Z,53.79
2022-09-16T08:41:33.557Z,50.61
2022-09-16T08:44:26.521Z,53.73
2022-09-16T08:47:01.538Z,54.05
2022-09-16T08:49:28.607Z,52.42
2022-09-16T08:51:58.071Z,52.41
2022-09-16T08:54:33.123Z,51.70
2022-09-16T08:57:02.840Z,53.60
2022-09-16T08:59:34.498Z,54.52
2022-09-16T09:02:09.618Z,56.46
2022-09-16T09:04:37.548Z,56.95
2022-09-16T09:07:19.676Z,54.38
2022-09-16T09:10:02.035Z,51.01
2022-09-16T09:12:33.681Z,52.15
2022-09-16T09:15:15.707Z,50.29
2022-09-16T09:18:17.492Z,51.70
2022-09-16T09:20:54.411Z,50.10
2022-09-16T09:23:37.007Z,49.75
2022-09-16T09:26:26.122Z,52.79
2022-09-16T09:29:11.077Z,51.50
2022-09-16T09:31:59.800Z,54.76
2022-09-16T09:34:34.997Z,49.33
2022-09-16T09:37:18.714Z,50.49
2022-09-16T09:39:52.066Z,50.28
2022-09-16T09:42:26.396Z,51.71
2022-09-16T09:45:01.400Z,49.93
2022-09-16T09:47:55.385Z,48.18
2022-09-16T09:50:41.051Z,48.05
2022-09-16T09:53:17.767Z,46.59
2022-09-16T09:55:45.120Z,46.70
2022-09-16T09:58:35.133Z,46.87
2022-09-16T10:01:02.493Z,45.94
2022-09-16T10:03:30.723Z,45.21
2022-09-16T10:05:57.876Z,43.99
2022-09-16T10:08:31.301Z,46.03
2022-09-16T10:11:00.847Z,45.57
2022-09-16T10:13:30.145Z,44.65
2022-09-16T10:16:21.674Z,45.59
2022-09-16T10:19:15.664Z,44.52
2022-09-16T10:21:47.739Z,45.44
2022-09-16T10:24:42.294Z,44.27
2022-09-16T10:27:30.069Z,44.52
2022-09-16T10:30:16.518Z,46.49
2022-09-16T10:33:03.148Z,47.94
2022-09-16T10:35:32.639Z,48.93
2022-09-16T10:38:04.530Z,52.18
2022-09-16T10:40:31.721Z,51.18
2022-09-16T10:43:07.640Z,53.59
2022-09-16T10:45:36.639Z,52.55
2022-09-16T10:48:14.028Z,48.47
2022-09-16T10:50:54.733Z,48.30
2022-09-16T10:53:24.147Z,44.77
2022-09-16T10:56:05.938Z,46.35
2022-09-16T10:58:33.228Z,47.41
2022-09-16T11:01:20.396Z,47.62
2022-09-16T11:04:03.207Z,51.32
2022-09-16T11:06:51.873Z,46.44
2022-09-16T11:10:05.296Z,46.98
2022-09-16T11:12:40.796Z,45.30
2022-09-16T11:15:16.722Z,45.79
2022-09-16T11:17:43.527Z,50.71
2022-09-16T11:20:48.945Z,48.86
2022-09-16T11:23:40.869Z,46.99
2022-09-16T11:26:15.550Z,47.72
2022-09-16T11:28:57.626Z,46.47
2022-09-16T11:31:55.884Z,43.26
2022-09-16T11:35:07.238Z,43.54
2022-09-16T11:37:47.037Z,46.61
2022-09-16T11:40:32.124Z,42.25
2022-09-16T11:42:59.040Z,40.81
2022-09-16T11:46:11.005Z,42.97
2022-09-16T11:49:11.614Z,43.07
2022-09-16T11:51:57.972Z,43.06
2022-09-16T11:54:43.101Z,39.80
2022-09-16T11:57:19.742Z,45.92
2022-09-16T11:59:52.896Z,42.23
2022-09-16T12:02:57.768Z,43.13
2022-09-16T12:05:30.565Z,41.19
2022-09-16T12:08:23.721Z,43.25
2022-09-16T12:10:56.870Z,41.37
2022-09-16T12:13:25.611Z,44.25
2022-09-16T12:15:57.549Z,40.80
2022-09-16T12:18:37.903Z,47.84
2022-09-16T12:21:25.624Z,44.53
2022-09-16T12:23:57.765Z,43.92
2022-09-16T12:26:38.472Z,46.16
2022-09-16T12:29:24.354Z,45.80
2022-09-16T12:32:08.474Z,44.71
2022-09-16T12:34:41.844Z,43.59
2022-09-16T12:37:24.213Z,45.34
2022-09-16T12:39:51.334Z,41.69
2022-09-16T12:42:27.117Z,42.33
2022-09-16T12:45:18.769Z,42.58
2022-09-16T12:48:15.724Z,43.80
2022-09-16T12:51:11.363Z,44.51
2022-09-16T12:54:07.077Z,44.81
2022-09-16T12:57:04.786Z,45.50
2022-09-16T12:59:40.537Z,46.06
2022-09-16T13:02:19.836Z,44.85
2022-09-16T13:04:51.342Z,43.34
2022-09-16T13:07:34.517Z,43.79
2022-09-16T13:10:19.025Z,44.66
2022-09-16T13:12:54.650Z,45.03
2022-09-16T13:15:29.422Z,45.28
2022-09-16T13:17:56.620Z,42.95
2022-09-16T13:20:32.924Z,40.29
2022-09-16T13:23:14.654Z,37.17
2022-09-16T13:25:47.507Z,37.44
2022-09-16T13:28:38.453Z,38.69
2022-09-16T13:31:11.676Z,38.60
2022-09-16T13:33:50.110Z,36.07
2022-09-16T13:36:19.970Z,37.71
2022-09-16T13:38:52.127Z,37.26
2022-09-16T13:41:38.554Z,35.54
2022-09-16T13:44:42.514Z,35.89
2022-09-16T13:47:09.322Z,37.17
2022-09-16T13:49:49.411Z,38.54
2022-09-16T13:52:21.144Z,39.89
2022-09-16T13:55:10.012Z,38.21
2022-09-16T13:57:40.290Z,37.96
2022-09-16T14:00:32.429Z,36.15
2022-09-16T14:03:33.151Z,36.38
2022-09-16T14:06:28.121Z,36.56
2022-09-16T14:08:58.195Z,36.57
2022-09-16T14:11:42.609Z,35.65
2022-09-16T14:14:29.797Z,36.76
2022-09-16T14:17:03.957Z,35.64
2022-09-16T14:19:36.802Z,37.02
2022-09-16T14:22:18.730Z,35.50
2022-09-16T14:24:48.377Z,37.60
2022-09-16T14:27:34.219Z,41.57
2022-09-16T14:30:03.722Z,42.05
2022-09-16T14:32:33.282Z,42.59
2022-09-16T14:35:03.457Z,43.21
2022-09-16T14:37:32.263Z,43.85
2022-09-16T14:40:05.862Z,43.40
2022-09-16T14:42:32.972Z,43.56
2022-09-16T14:45:00.467Z,45.57
2022-09-16T14:47:52.749Z,45.88
2022-09-16T14:50:27.051Z,44.52
2022-09-16T14:53:05.227Z,44.06
2022-09-16T14:55:36.414Z,46.99
2022-09-16T14:58:03.858Z,47.26
2022-09-16T15:00:46.848Z,47.28
2022-09-16T15:03:30.401Z,46.24
2022-09-16T15:05:59.897Z,47.74
2022-09-16T15:08:32.350Z,46.65
2022-09-16T15:11:03.554Z,48.29
2022-09-16T15:13:35.727Z,48.92
2022-09-16T15:16:07.686Z,48.53
2022-09-16T15:18:37.594Z,47.22
2022-09-16T15:21:10.983Z,46.03
2022-09-16T15:23:40.199Z,46.53
2022-09-16T15:26:13.670Z,47.95
2022-09-16T15:29:04.376Z,50.44
2022-09-16T15:31:37.114Z,52.94
2022-09-16T15:34:22.884Z,53.18
2022-09-16T15:36:52.176Z,51.60
2022-09-16T15:39:31.726Z,52.58
2022-09-16T15:42:18.357Z,51.97
2022-09-16T15:44:50.758Z,51.43
2022-09-16T15:47:30.905Z,50.96
2022-09-16T15:50:12.465Z,52.48
2022-09-16T15:52:48.447Z,50.09
2022-09-16T15:55:28.847Z,50.11
2022-09-16T15:58:21.497Z,51.91
2022-09-16T16:01:01.012Z,51.77
2022-09-16T16:03:36.313Z,51.13
2022-09-16T16:06:05.300Z,50.69
2022-09-16T16:08:45.135Z,52.10
2022-09-16T16:11:14.542Z,52.30
2022-09-16T16:13:42.028Z,52.34
2022-09-16T16:16:09.233Z,51.21
2022-09-16T16:18:37.346Z,51.70
2022-09-16T16:21:08.814Z,52.32
2022-09-16T16:23:36.702Z,52.71
2022-09-16T16:26:08.288Z,54.14
2022-09-16T16:28:36.242Z,52.41
2022-09-16T16:31:18.335Z,53.95
2022-09-16T16:33:47.753Z,52.68
2022-09-16T16:36:16.856Z,52.58
2022-09-16T16:38:43.909Z,52.17
2022-09-16T16:41:12.440Z,52.91
2022-09-16T16:43:40.281Z,53.72
2022-09-16T16:46:07.483Z,53.26
2022-09-16T16:48:34.823Z,52.96
2022-09-16T16:51:04.871Z,52.49
2022-09-16T16:53:32.497Z,52.43
2022-09-16T16:56:14.760Z,53.31
2022-09-16T16:58:43.252Z,52.28
2022-09-16T17:01:16.415Z,54.36
2022-09-16T17:03:45.090Z,55.02
2022-09-16T17:06:12.426Z,55.13
2022-09-16T17:08:39.411Z,54.75
2022-09-16T17:11:14.075Z,53.92
2022-09-16T17:13:46.244Z,53.02
2022-09-16T17:16:16.095Z,51.84
2022-09-16T17:18:43.678Z,52.02
2022-09-16T17:21:16.880Z,51.74
2022-09-16T17:23:44.056Z,52.66
2022-09-16T17:26:11.531Z,53.58
2022-09-16T17:28:39.903Z,51.87
2022-09-16T17:31:10.968Z,51.64
2022-09-16T17:33:37.994Z,52.80
2022-09-16T17:36:07.565Z,55.46
2022-09-16T17:38:35.250Z,53.63
2022-09-16T17:41:13.497Z,55.78
2022-09-16T17:43:41.378Z,56.55
2022-09-16T17:46:13.111Z,57.65
2022-09-16T17:48:40.009Z,57.79
2022-09-16T17:51:06.970Z,55.00
2022-09-16T17:53:34.539Z,55.00
2022-09-16T17:56:06.942Z,54.28
2022-09-16T17:58:34.634Z,56.70
2022-09-16T18:01:08.012Z,56.11
2022-09-16T18:03:35.188Z,56.32
2022-09-16T18:06:13.654Z,57.39
2022-09-16T18:08:41.426Z,58.24
2022-09-16T18:11:10.017Z,59.63
2022-09-16T18:13:37.572Z,59.38
2022-09-16T18:16:09.737Z,58.96
2022-09-16T18:18:37.594Z,57.44
2022-09-16T18:21:05.875Z,58.77
2022-09-16T18:23:33.206Z,57.15
2022-09-16T18:26:05.430Z,57.92
2022-09-16T18:28:51.670Z,55.15
2022-09-16T18:31:26.193Z,56.87
2022-09-16T18:33:55.066Z,56.27
2022-09-16T18:36:25.507Z,57.18
2022-09-16T18:38:57.360Z,58.81
2022-09-16T18:41:27.094Z,59.65
2022-09-16T18:43:56.153Z,59.88
2022-09-16T18:46:32.234Z,58.87
2022-09-16T18:48:59.790Z,57.21
2022-09-16T18:51:32.093Z,58.28
2022-09-16T18:54:02.282Z,58.87
2022-09-16T18:56:32.071Z,57.54
2022-09-16T18:59:23.656Z,57.16
2022-09-16T19:01:52.879Z,56.59
2022-09-16T19:04:22.619Z,54.75
2022-09-16T19:06:51.994Z,55.69
2022-09-16T19:09:21.118Z,57.03
2022-09-16T19:11:49.565Z,58.33
2022-09-16T19:14:16.846Z,60.56
2022-09-16T19:16:44.942Z,57.66
2022-09-16T19:19:13.854Z,57.95
2022-09-16T19:21:42.409Z,56.58
2022-09-16T19:24:14.498Z,55.92
2022-09-16T19:26:42.673Z,56.63
2022-09-16T19:29:10.174Z,55.15
2022-09-16T19:31:39.431Z,55.13
2022-09-16T19:34:06.962Z,57.69
2022-09-16T19:36:34.822Z,61.21
2022-09-16T19:39:01.891Z,62.47
2022-09-16T19:41:31.316Z,64.01
2022-09-16T19:44:02.867Z,64.44
2022-09-16T19:46:32.860Z,63.35
2022-09-16T19:48:59.705Z,64.17
2022-09-16T19:51:26.889Z,64.49
2022-09-16T19:53:54.411Z,64.47
2022-09-16T19:56:26.588Z,64.73
2022-09-16T19:58:54.438Z,63.55
2022-09-16T20:01:26.555Z,63.06
2022-09-16T20:03:54.119Z,60.92
2022-09-16T20:06:26.927Z,60.74
2022-09-16T20:08:56.316Z,61.35
2022-09-16T20:11:24.644Z,60.52
2022-09-16T20:13:53.301Z,59.84
2022-09-16T20:16:22.011Z,60.68
2022-09-16T20:18:49.219Z,63.91
2022-09-16T20:21:19.206Z,63.19
2022-09-16T20:23:47.072Z,61.91
2022-09-16T20:26:19.617Z,62.02
2022-09-16T20:28:50.387Z,59.23
2022-09-16T20:31:20.814Z,61.24
2022-09-16T20:33:48.280Z,60.01
2022-09-16T20:36:17.761Z,60.75
2022-09-16T20:38:45.746Z,60.51
2022-09-16T20:41:14.125Z,59.13
2022-09-16T20:43:41.480Z,58.90
2022-09-16T20:46:20.118Z,59.38
2022-09-16T20:48:47.315Z,59.64
2022-09-16T20:51:19.266Z,61.47
2022-09-16T20:53:52.364Z,61.50
2022-09-16T20:56:19.581Z,60.89
2022-09-16T20:58:46.458Z,61.56
2022-09-16T21:01:31.811Z,63.69
2022-09-16T21:04:06.067Z,64.92
2022-09-16T21:06:34.877Z,67.76
2022-09-16T21:09:04.784Z,73.65
2022-09-16T21:11:32.210Z,75.10
2022-09-16T21:14:01.632Z,77.47
2022-09-16T21:16:29.769Z,75.45
2022-09-16T21:18:58.047Z,80.14
2022-09-16T21:21:26.431Z,78.99
2022-09-16T21:23:55.528Z,79.12
2022-09-16T21:26:24.730Z,78.53
2022-09-16T21:28:58.912Z,76.93
2022-09-16T21:31:28.455Z,76.61
2022-09-16T21:33:56.953Z,75.31
2022-09-16T21:36:24.927Z,76.69
2022-09-16T21:38:52.133Z,75.84
2022-09-16T21:41:21.454Z,78.06
2022-09-16T21:43:51.447Z,79.32
2022-09-16T21:46:20.792Z,77.92
2022-09-16T21:48:49.162Z,77.27
2022-09-16T21:51:18.219Z,79.10
2022-09-16T21:53:46.533Z,76.84
2022-09-16T21:56:18.451Z,78.45
2022-09-16T21:58:46.610Z,77.51
2022-09-16T22:01:21.382Z,77.06
2022-09-16T22:03:55.676Z,75.23
2022-09-16T22:06:23.257Z,76.77
2022-09-16T22:08:50.368Z,76.11
2022-09-16T22:11:19.385Z,76.79
2022-09-16T22:13:46.705Z,74.84
2022-09-16T22:16:17.476Z,74.37
2022-09-16T22:18:44.817Z,77.26
2022-09-16T22:21:14.175Z,79.28
2022-09-16T22:23:41.355Z,79.72
2022-09-16T22:26:12.260Z,77.37
2022-09-16T22:28:39.946Z,73.37
2022-09-16T22:31:18.215Z,72.90
2022-09-16T22:33:46.763Z,74.34
2022-09-16T22:36:16.197Z,70.85
2022-09-16T22:38:47.515Z,68.07
2022-09-16T22:41:15.687Z,66.80
2022-09-16T22:43:44.781Z,67.62
2022-09-16T22:46:17.091Z,67.15
2022-09-16T22:48:44.679Z,65.47
2022-09-16T22:51:13.187Z,65.48
2022-09-16T22:53:40.515Z,63.81
2022-09-16T22:56:10.385Z,62.37
2022-09-16T22:58:37.276Z,63.81
2022-09-16T23:01:09.759Z,61.25
2022-09-16T23:03:37.296Z,60.55
2022-09-16T23:06:06.327Z,61.91
2022-09-16T23:08:35.179Z,62.15
2022-09-16T23:11:04.348Z,65.45
2022-09-16T23:13:35.552Z,62.52
2022-09-16T23:16:04.679Z,62.70
2022-09-16T23:18:32.767Z,62.59
2022-09-16T23:21:04.136Z,63.84
2022-09-16T23:23:32.580Z,58.82
2022-09-16T23:26:03.417Z,58.90
2022-09-16T23:28:31.143Z,57.65
2022-09-16T23:31:09.545Z,60.76
2022-09-16T23:33:36.801Z,59.92
2022-09-16T23:36:05.066Z,59.31
2022-09-16T23:38:32.502Z,61.48
2022-09-16T23:41:05.232Z,64.13
2022-09-16T23:43:32.392Z,67.11
2022-09-16T23:46:02.244Z,67.11
2022-09-16T23:48:30.408Z,62.52
2022-09-16T23:50:58.316Z,61.59
2022-09-16T23:53:25.402Z,64.64
2022-09-16T23:55:52.292Z,63.61
2022-09-16T23:58:19.536Z,67.29
